Time;durP1;ratioP1;P1;durP2;ratioP2;P2;SDS_P1;SDS_P2;PMS_P1;PMS_P2;Temp;Humidity;BMP_temperature;BMP_pressure;BME280_temperature;BME280_humidity;BME280_pressure;Samples;Min_cycle;Max_cycle;Signal;HPM_P1;HPM_P2
2022/09/24 00:02:05;;;;;;;41.10;20.00;;;13.30;77.90;;;;;;5043078;28;20505;-74
2022/09/24 00:04:34;;;;;;;42.20;19.97;;;13.30;77.90;;;;;;5043117;28;20491;-76
2022/09/24 00:07:02;;;;;;;35.17;17.27;;;13.30;77.90;;;;;;5045026;28;20516;-75
2022/09/24 00:09:31;;;;;;;16.03;7.60;;;13.20;78.00;;;;;;5046526;28;20448;-74
2022/09/24 00:12:01;;;;;;;18.60;9.60;;;13.20;78.00;;;;;;5041618;28;20875;-75
2022/09/24 00:14:29;;;;;;;26.10;12.27;;;13.20;77.90;;;;;;5043091;28;20516;-75
2022/09/24 00:16:56;;;;;;;23.53;10.23;;;13.20;78.00;;;;;;5048004;28;20542;-74
2022/09/24 00:19:24;;;;;;;15.23;9.17;;;13.20;78.00;;;;;;5044041;28;20463;-75
2022/09/24 00:21:52;;;;;;;11.87;7.10;;;13.20;78.00;;;;;;5045187;28;20533;-75
2022/09/24 00:27:10;;;;;;;72.70;30.30;;;13.10;78.10;;;;;;5028499;28;20984;-75
2022/09/24 00:29:38;;;;;;;54.30;23.20;;;13.10;78.20;;;;;;5043797;28;20457;-74
2022/09/24 00:32:06;;;;;;;26.63;13.20;;;13.10;78.20;;;;;;5042610;28;20867;-74
2022/09/24 00:34:34;;;;;;;33.43;16.03;;;13.10;78.20;;;;;;5041407;28;20488;-75
2022/09/24 00:37:02;;;;;;;16.17;9.73;;;13.10;78.20;;;;;;5043659;28;20467;-75
2022/09/24 00:39:30;;;;;;;10.20;7.27;;;13.10;78.20;;;;;;5042479;28;20564;-76
2022/09/24 00:41:58;;;;;;;13.30;6.40;;;13.10;78.20;;;;;;5036551;28;20463;-74
2022/09/24 00:44:53;;;;;;;9.33;6.20;;;13.10;78.20;;;;;;5045740;28;20904;-75
2022/09/24 00:47:30;;;;;;;9.67;7.27;;;13.00;78.40;;;;;;5043217;28;20450;-75
2022/09/24 00:50:17;;;;;;;14.40;8.60;;;13.00;78.50;;;;;;5043881;28;20497;-75
2022/09/24 00:52:51;;;;;;;18.33;11.47;;;13.10;78.40;;;;;;5042055;28;20466;-74
2022/09/24 00:55:22;;;;;;;40.10;20.27;;;13.00;78.50;;;;;;5044730;28;20892;-75
2022/09/24 00:57:52;;;;;;;34.00;18.80;;;13.10;78.30;;;;;;5042407;28;20460;-75
2022/09/24 01:00:22;;;;;;;23.13;11.87;;;13.10;78.40;;;;;;5042816;28;20529;-75
2022/09/24 01:02:54;;;;;;;33.17;17.50;;;13.10;78.40;;;;;;5042835;28;20538;-75
2022/09/24 01:05:22;;;;;;;26.70;16.77;;;13.10;78.40;;;;;;5045182;28;20466;-76
2022/09/24 01:07:50;;;;;;;19.60;11.97;;;13.10;78.50;;;;;;5045613;28;20975;-76
2022/09/24 01:13:18;;;;;;;14.10;9.00;;;13.10;78.50;;;;;;5051321;28;20875;-76
2022/09/24 01:15:53;;;;;;;13.27;7.80;;;13.10;78.50;;;;;;5041437;28;20487;-74
2022/09/24 01:18:30;;;;;;;13.17;7.90;;;13.10;78.50;;;;;;5047314;28;20517;-76
2022/09/24 01:21:24;;;;;;;13.03;8.80;;;13.10;78.50;;;;;;5042063;28;21000;-76
2022/09/24 01:24:14;;;;;;;16.17;10.10;;;13.10;78.50;;;;;;5042972;28;20476;-77
2022/09/24 01:27:01;;;;;;;13.87;8.93;;;13.10;78.50;;;;;;5046125;28;21058;-74
2022/09/24 01:29:46;;;;;;;11.03;7.27;;;13.10;78.50;;;;;;5049099;28;20466;-74
2022/09/24 01:32:21;;;;;;;18.03;7.63;;;13.10;78.50;;;;;;5047383;28;20458;-74
2022/09/24 01:34:58;;;;;;;10.13;8.07;;;13.10;78.50;;;;;;5045185;28;21242;-73
2022/09/24 01:37:28;;;;;;;12.83;8.03;;;13.10;78.50;;;;;;5047014;28;20494;-74
2022/09/24 01:39:58;;;;;;;13.70;8.20;;;13.10;78.60;;;;;;5047363;28;20462;-76
2022/09/24 01:42:29;;;;;;;12.80;9.20;;;13.10;78.60;;;;;;5047328;28;21011;-75
2022/09/24 01:45:00;;;;;;;13.67;8.60;;;13.00;78.70;;;;;;5047182;28;20455;-76
2022/09/24 01:47:32;;;;;;;13.10;9.13;;;13.00;78.70;;;;;;5049513;28;20545;-76
2022/09/24 01:50:03;;;;;;;27.40;13.53;;;13.00;78.70;;;;;;5050182;28;20455;-76
2022/09/24 01:52:38;;;;;;;32.10;15.50;;;13.00;78.80;;;;;;5045312;28;20451;-76
2022/09/24 01:55:11;;;;;;;61.57;20.63;;;13.10;78.70;;;;;;5048896;28;20520;-74
2022/09/24 01:57:43;;;;;;;107.37;34.77;;;13.00;78.80;;;;;;5047729;28;20561;-74
2022/09/24 02:00:15;;;;;;;104.07;34.50;;;13.00;78.80;;;;;;5048199;28;20447;-75
2022/09/24 02:02:47;;;;;;;112.33;39.33;;;13.00;78.80;;;;;;5047611;28;20560;-76
2022/09/24 02:05:22;;;;;;;69.77;29.20;;;13.00;78.90;;;;;;5048759;28;20874;-75
2022/09/24 02:07:57;;;;;;;49.73;21.60;;;13.00;78.90;;;;;;5045646;28;20486;-75
2022/09/24 02:10:30;;;;;;;18.90;11.00;;;13.00;78.90;;;;;;5045597;28;20555;-76
2022/09/24 02:13:02;;;;;;;15.07;8.77;;;13.00;78.90;;;;;;5048119;28;20458;-76
2022/09/24 02:15:36;;;;;;;13.53;8.20;;;13.00;78.90;;;;;;5045435;28;21460;-74
2022/09/24 02:18:08;;;;;;;13.87;8.03;;;13.00;78.90;;;;;;5039178;28;20509;-74
2022/09/24 02:20:38;;;;;;;13.17;8.30;;;13.00;78.90;;;;;;5039481;28;20467;-76
2022/09/24 02:23:10;;;;;;;14.57;9.07;;;13.00;79.00;;;;;;5040934;28;20960;-75
2022/09/24 02:25:42;;;;;;;12.53;8.50;;;13.00;79.00;;;;;;5053019;28;20836;-76
2022/09/24 02:28:10;;;;;;;16.93;9.80;;;13.00;79.10;;;;;;5036968;28;20498;-76
2022/09/24 02:30:44;;;;;;;13.70;8.60;;;13.00;79.10;;;;;;5050137;28;20463;-76
2022/09/24 02:35:56;;;;;;;10.30;8.00;;;13.00;79.10;;;;;;5047039;28;20510;-76
2022/09/24 02:38:24;;;;;;;11.50;8.37;;;13.00;79.20;;;;;;5043916;28;20455;-75
2022/09/24 02:40:54;;;;;;;14.00;8.67;;;13.00;79.10;;;;;;5046874;28;20510;-76
2022/09/24 02:43:22;;;;;;;14.60;9.33;;;13.00;79.20;;;;;;5047511;28;20463;-75
2022/09/24 02:45:51;;;;;;;14.50;9.90;;;13.00;79.20;;;;;;5045099;28;20487;-75
2022/09/24 02:48:19;;;;;;;17.47;10.50;;;13.00;79.20;;;;;;5041845;28;20463;-75
2022/09/24 02:50:47;;;;;;;17.47;10.50;;;13.00;79.20;;;;;;5046882;28;20485;-75
2022/09/24 02:53:15;;;;;;;18.13;10.37;;;13.00;79.20;;;;;;5064772;28;20467;-77
2022/09/24 02:55:42;;;;;;;20.33;11.70;;;13.00;79.30;;;;;;5044077;28;20492;-75
2022/09/24 02:58:11;;;;;;;16.87;10.43;;;13.00;79.30;;;;;;5041826;28;20447;-75
2022/09/24 03:00:39;;;;;;;20.10;11.40;;;13.00;79.30;;;;;;5045329;28;20504;-75
2022/09/24 03:03:08;;;;;;;14.20;10.10;;;13.00;79.30;;;;;;5047469;28;20518;-75
2022/09/24 03:05:36;;;;;;;18.30;10.67;;;13.00;79.30;;;;;;5046512;28;20488;-74
2022/09/24 03:08:06;;;;;;;14.60;9.57;;;13.00;79.30;;;;;;5047938;28;20944;-75
2022/09/24 03:10:34;;;;;;;18.30;11.50;;;13.00;79.40;;;;;;5046632;28;20459;-74
2022/09/24 03:13:02;;;;;;;13.87;9.50;;;13.00;79.30;;;;;;5046351;28;20466;-74
2022/09/24 03:15:30;;;;;;;16.30;9.40;;;13.00;79.30;;;;;;5044025;28;20487;-75
2022/09/24 03:17:58;;;;;;;17.67;10.03;;;13.00;79.30;;;;;;5045170;28;20459;-75
2022/09/24 03:20:27;;;;;;;16.60;10.63;;;13.00;79.40;;;;;;5041944;28;20526;-75
2022/09/24 03:22:55;;;;;;;17.50;9.50;;;12.90;79.40;;;;;;5043921;28;20536;-75
2022/09/24 03:25:24;;;;;;;17.33;10.80;;;12.90;79.40;;;;;;5045146;28;20571;-75
2022/09/24 03:27:51;;;;;;;20.47;12.10;;;13.00;79.40;;;;;;5042318;28;20505;-74
2022/09/24 03:33:04;;;;;;;19.30;11.90;;;12.90;79.50;;;;;;5037371;28;20578;-75
2022/09/24 03:35:34;;;;;;;19.20;11.90;;;12.90;79.50;;;;;;5043212;28;20511;-75
2022/09/24 03:38:01;;;;;;;17.40;10.63;;;12.90;79.50;;;;;;5043337;28;20482;-76
2022/09/24 03:40:29;;;;;;;19.50;13.07;;;12.90;79.50;;;;;;5049023;28;20856;-74
2022/09/24 03:42:57;;;;;;;17.53;11.70;;;12.90;79.50;;;;;;5042599;28;20922;-75
2022/09/24 03:45:25;;;;;;;20.43;11.50;;;12.90;79.50;;;;;;5046206;28;20485;-75
2022/09/24 03:47:54;;;;;;;15.10;9.80;;;12.90;79.50;;;;;;5044224;28;20471;-75
2022/09/24 03:50:22;;;;;;;16.80;10.47;;;12.90;79.50;;;;;;5048645;28;20451;-75
2022/09/24 03:52:51;;;;;;;15.83;9.80;;;12.90;79.50;;;;;;5044441;28;20445;-75
2022/09/24 03:55:19;;;;;;;15.03;9.67;;;12.90;79.50;;;;;;5044029;28;20540;-75
2022/09/24 03:57:47;;;;;;;14.23;10.00;;;12.90;79.50;;;;;;5044980;28;20558;-75
2022/09/24 04:00:15;;;;;;;11.30;8.70;;;12.80;79.40;;;;;;5043971;28;20517;-75
2022/09/24 04:02:43;;;;;;;14.27;9.00;;;12.80;79.40;;;;;;5046236;28;20506;-75
2022/09/24 04:05:11;;;;;;;10.67;8.33;;;12.80;79.40;;;;;;5044374;28;20489;-76
2022/09/24 04:07:40;;;;;;;11.40;8.00;;;12.70;79.40;;;;;;5044383;28;20443;-76
2022/09/24 04:10:10;;;;;;;13.73;9.50;;;12.70;79.40;;;;;;5045726;28;21093;-76
2022/09/24 04:12:38;;;;;;;12.80;8.90;;;12.70;79.40;;;;;;5045562;28;20470;-75
2022/09/24 04:15:06;;;;;;;12.97;8.10;;;12.70;79.40;;;;;;5045011;28;20582;-75
2022/09/24 04:17:34;;;;;;;10.87;8.53;;;12.70;79.40;;;;;;5040742;28;20866;-76
2022/09/24 04:20:02;;;;;;;12.03;10.13;;;12.70;79.40;;;;;;5043935;28;20499;-73
2022/09/24 04:22:30;;;;;;;19.37;10.70;;;12.70;79.50;;;;;;5049520;28;20508;-75
2022/09/24 04:24:59;;;;;;;16.57;9.93;;;12.60;79.40;;;;;;5041514;28;20496;-75
2022/09/24 04:27:28;;;;;;;14.90;10.20;;;12.60;79.30;;;;;;5048109;28;20466;-73
2022/09/24 04:29:56;;;;;;;14.83;9.67;;;12.60;79.40;;;;;;5044486;28;20474;-75
2022/09/24 04:32:24;;;;;;;16.90;10.07;;;12.50;79.50;;;;;;5044026;28;20829;-76
2022/09/24 04:34:52;;;;;;;16.87;10.50;;;12.50;79.50;;;;;;5043193;28;20565;-76
2022/09/24 04:37:20;;;;;;;13.13;9.70;;;12.50;79.50;;;;;;5044182;28;20616;-76
2022/09/24 04:39:47;;;;;;;12.00;8.47;;;12.50;79.50;;;;;;5041652;28;20463;-76
2022/09/24 04:42:17;;;;;;;20.67;10.10;;;12.50;79.40;;;;;;5040525;28;20458;-76
2022/09/24 04:44:46;;;;;;;15.80;8.83;;;12.50;79.40;;;;;;5043181;28;20515;-76
2022/09/24 04:47:16;;;;;;;16.47;10.27;;;12.40;79.40;;;;;;5044393;28;20451;-75
2022/09/24 04:49:44;;;;;;;21.13;10.93;;;12.40;79.50;;;;;;5044075;28;20489;-76
2022/09/24 04:52:14;;;;;;;17.87;12.57;;;12.40;79.50;;;;;;5044433;28;20603;-76
2022/09/24 04:54:45;;;;;;;15.33;10.20;;;12.40;79.40;;;;;;5045541;28;21053;-75
2022/09/24 04:57:14;;;;;;;15.50;10.20;;;12.40;79.40;;;;;;5040442;28;20479;-76
2022/09/24 04:59:44;;;;;;;12.10;7.80;;;12.40;79.50;;;;;;5051327;28;20524;-75
2022/09/24 05:02:14;;;;;;;10.73;8.03;;;12.30;79.50;;;;;;5044727;28;20517;-76
2022/09/24 05:04:42;;;;;;;13.37;9.80;;;12.30;79.40;;;;;;5048795;28;20479;-76
2022/09/24 05:07:11;;;;;;;15.67;8.87;;;12.30;79.50;;;;;;5050478;28;20544;-76
2022/09/24 05:09:39;;;;;;;11.33;8.33;;;12.30;79.50;;;;;;5048576;28;20508;-76
2022/09/24 05:12:07;;;;;;;10.43;8.30;;;12.30;79.40;;;;;;5047347;28;21096;-76
2022/09/24 05:14:35;;;;;;;11.23;8.23;;;12.30;79.40;;;;;;5049829;28;20478;-77
2022/09/24 05:17:03;;;;;;;11.10;8.10;;;12.20;79.40;;;;;;5047339;28;20847;-76
2022/09/24 05:19:32;;;;;;;13.30;8.03;;;12.20;79.40;;;;;;5049530;28;20493;-76
2022/09/24 05:22:00;;;;;;;15.13;8.00;;;12.20;79.30;;;;;;5045095;28;20548;-74
2022/09/24 05:24:28;;;;;;;11.03;8.00;;;12.20;79.30;;;;;;5045641;28;20643;-75
2022/09/24 05:27:09;;;;;;;11.07;8.20;;;12.20;79.30;;;;;;5048269;28;20439;-74
2022/09/24 05:29:38;;;;;;;13.60;9.70;;;12.10;79.20;;;;;;5047660;28;20516;-75
2022/09/24 05:32:07;;;;;;;20.10;10.13;;;12.10;79.20;;;;;;5048134;28;21494;-75
2022/09/24 05:34:37;;;;;;;16.60;10.70;;;12.10;79.20;;;;;;5046529;28;20561;-74
2022/09/24 05:37:05;;;;;;;15.17;9.77;;;12.10;79.30;;;;;;5049159;28;20560;-76
2022/09/24 05:39:33;;;;;;;12.37;9.20;;;12.10;79.30;;;;;;5052519;28;20975;-75
2022/09/24 05:42:02;;;;;;;13.50;8.40;;;12.00;79.20;;;;;;5048902;28;20836;-75
2022/09/24 05:44:30;;;;;;;11.63;8.60;;;12.00;79.20;;;;;;5045861;28;20479;-75
2022/09/24 05:46:59;;;;;;;11.50;9.03;;;12.00;79.20;;;;;;5049170;28;20447;-75
2022/09/24 05:49:27;;;;;;;12.40;8.27;;;12.00;79.10;;;;;;5047878;28;20520;-76
2022/09/24 05:51:56;;;;;;;13.87;9.70;;;11.90;79.00;;;;;;5047553;28;20494;-75
2022/09/24 05:54:24;;;;;;;15.50;9.23;;;11.90;79.20;;;;;;5045876;28;20916;-74
2022/09/24 05:56:52;;;;;;;13.97;9.27;;;11.90;79.30;;;;;;5039442;28;20506;-74
2022/09/24 05:59:20;;;;;;;12.37;8.47;;;11.90;79.30;;;;;;5047906;28;20545;-75
2022/09/24 06:01:50;;;;;;;15.63;9.50;;;11.90;79.30;;;;;;5049160;28;20497;-76
2022/09/24 06:04:18;;;;;;;16.37;9.83;;;11.90;79.30;;;;;;5051876;28;20598;-75
2022/09/24 06:06:46;;;;;;;14.50;10.13;;;11.90;79.40;;;;;;5047174;28;20458;-75
2022/09/24 06:09:16;;;;;;;19.00;10.50;;;11.90;79.30;;;;;;5049201;28;20471;-74
2022/09/24 06:11:44;;;;;;;17.23;11.77;;;12.00;79.30;;;;;;5045070;28;20467;-74
2022/09/24 06:14:13;;;;;;;23.77;11.70;;;12.00;79.30;;;;;;5045942;28;20478;-75
2022/09/24 06:16:41;;;;;;;15.10;10.40;;;12.00;79.20;;;;;;5049443;28;20516;-75
2022/09/24 06:19:09;;;;;;;30.20;21.70;;;12.00;79.20;;;;;;5048693;28;20519;-73
2022/09/24 06:21:37;;;;;;;33.37;17.83;;;12.00;79.30;;;;;;5041960;28;21209;-72
2022/09/24 06:24:05;;;;;;;20.60;12.33;;;12.00;79.50;;;;;;5046404;28;20522;-73
2022/09/24 06:26:35;;;;;;;15.37;11.23;;;12.10;79.60;;;;;;5048883;28;20483;-73
2022/09/24 06:29:03;;;;;;;15.93;10.80;;;12.10;79.70;;;;;;5046932;28;20610;-75
2022/09/24 06:31:33;;;;;;;26.13;11.30;;;12.10;79.70;;;;;;5046574;28;20446;-74
2022/09/24 06:34:02;;;;;;;19.00;10.87;;;12.10;79.80;;;;;;5047696;28;20536;-75
2022/09/24 06:36:30;;;;;;;18.53;10.87;;;12.10;79.80;;;;;;5047804;28;20994;-75
2022/09/24 06:38:58;;;;;;;16.03;10.77;;;12.10;79.90;;;;;;5037410;28;21087;-74
2022/09/24 06:41:26;;;;;;;14.73;11.13;;;12.20;80.00;;;;;;5046874;28;20467;-74
2022/09/24 06:43:56;;;;;;;14.40;11.20;;;12.20;80.10;;;;;;5045637;28;20475;-75
2022/09/24 06:46:24;;;;;;;19.73;11.70;;;12.20;80.20;;;;;;5052703;28;20993;-75
2022/09/24 06:48:53;;;;;;;14.37;10.47;;;12.20;80.20;;;;;;5045240;28;20466;-75
2022/09/24 06:51:21;;;;;;;13.50;10.07;;;12.20;80.30;;;;;;5044934;28;20446;-74
2022/09/24 06:53:51;;;;;;;12.83;10.07;;;12.20;80.40;;;;;;5045515;28;20548;-74
2022/09/24 06:56:19;;;;;;;13.73;10.60;;;12.20;80.40;;;;;;5050244;28;20501;-74
2022/09/24 06:58:47;;;;;;;17.23;11.40;;;12.30;80.50;;;;;;5043661;28;20490;-74
2022/09/24 07:01:16;;;;;;;17.13;9.90;;;12.30;80.50;;;;;;5047714;28;20569;-74
2022/09/24 07:03:44;;;;;;;16.43;11.20;;;12.30;80.60;;;;;;5044198;28;20843;-74
2022/09/24 07:06:12;;;;;;;17.70;11.03;;;12.30;80.70;;;;;;5045297;28;21010;-75
2022/09/24 07:08:40;;;;;;;67.17;24.53;;;12.30;80.80;;;;;;5044304;28;20952;-74
2022/09/24 07:11:08;;;;;;;23.00;14.63;;;12.40;80.90;;;;;;5043102;28;20937;-74
2022/09/24 07:13:36;;;;;;;15.00;10.90;;;12.40;81.00;;;;;;5047474;28;20447;-74
2022/09/24 07:16:03;;;;;;;14.67;10.83;;;12.50;81.00;;;;;;5042809;28;20458;-73
2022/09/24 07:18:33;;;;;;;16.30;11.00;;;12.50;81.00;;;;;;5043453;28;20478;-74
2022/09/24 07:21:01;;;;;;;15.40;11.60;;;12.60;81.10;;;;;;5044474;28;20513;-73
2022/09/24 07:23:29;;;;;;;15.77;11.30;;;12.60;81.10;;;;;;5046889;28;20456;-73
2022/09/24 07:25:57;;;;;;;16.60;10.50;;;12.70;81.10;;;;;;5045337;28;20467;-73
2022/09/24 07:28:25;;;;;;;18.67;12.53;;;12.70;81.10;;;;;;5042241;28;20901;-74
2022/09/24 07:30:58;;;;;;;16.57;12.43;;;12.70;81.20;;;;;;5044102;28;20494;-73
2022/09/24 07:33:26;;;;;;;18.70;11.10;;;12.80;81.20;;;;;;5045613;28;20471;-73
2022/09/24 07:35:55;;;;;;;14.50;12.00;;;12.80;81.30;;;;;;5043093;28;20483;-74
2022/09/24 07:38:23;;;;;;;16.77;11.10;;;12.80;81.20;;;;;;5045588;28;20482;-75
2022/09/24 07:40:55;;;;;;;17.87;12.80;;;12.90;81.30;;;;;;5044412;28;20588;-74
2022/09/24 07:43:23;;;;;;;15.57;12.00;;;12.90;81.20;;;;;;5045471;28;20959;-75
2022/09/24 07:45:54;;;;;;;14.57;11.70;;;12.90;81.20;;;;;;5044508;28;20537;-75
2022/09/24 07:48:23;;;;;;;17.43;12.80;;;12.90;81.30;;;;;;5043180;28;20536;-74
2022/09/24 07:50:51;;;;;;;16.57;12.70;;;12.90;81.30;;;;;;5048337;28;20512;-74
2022/09/24 07:53:21;;;;;;;15.20;12.50;;;12.90;81.30;;;;;;5041387;28;20455;-74
2022/09/24 07:55:49;;;;;;;14.40;12.03;;;12.90;81.50;;;;;;5039444;28;20561;-74
2022/09/24 07:58:17;;;;;;;18.60;12.73;;;12.90;81.60;;;;;;5042888;28;20509;-74
2022/09/24 08:00:45;;;;;;;18.60;12.83;;;12.90;81.70;;;;;;5047069;28;20528;-76
2022/09/24 08:03:13;;;;;;;16.90;12.77;;;13.00;81.70;;;;;;5043417;28;21185;-74
2022/09/24 08:05:45;;;;;;;15.40;12.00;;;13.00;81.80;;;;;;5052787;28;20540;-76
2022/09/24 08:08:13;;;;;;;27.33;12.83;;;13.00;81.80;;;;;;5044744;28;20938;-75
2022/09/24 08:10:43;;;;;;;19.87;13.97;;;13.10;81.90;;;;;;5045141;28;20478;-74
2022/09/24 08:13:11;;;;;;;19.77;13.23;;;13.10;82.00;;;;;;5043242;28;20521;-75
2022/09/24 08:15:39;;;;;;;15.53;11.63;;;13.10;82.00;;;;;;5041549;28;20480;-74
2022/09/24 08:18:07;;;;;;;15.60;12.53;;;13.20;82.00;;;;;;5046437;28;20482;-76
2022/09/24 08:20:37;;;;;;;17.40;12.90;;;13.20;82.10;;;;;;5044557;28;20460;-75
2022/09/24 08:23:06;;;;;;;17.83;10.93;;;13.30;82.10;;;;;;5041649;28;20481;-74
2022/09/24 08:25:34;;;;;;;15.70;12.60;;;13.30;82.00;;;;;;5037465;28;20548;-75
2022/09/24 08:28:04;;;;;;;16.37;12.70;;;13.30;82.00;;;;;;5043688;28;20549;-74
2022/09/24 08:30:32;;;;;;;16.80;12.73;;;13.40;82.00;;;;;;5040482;28;20498;-74
2022/09/24 08:33:00;;;;;;;16.30;11.83;;;13.40;82.10;;;;;;5040669;28;20457;-74
2022/09/24 08:35:28;;;;;;;16.40;12.03;;;13.40;82.10;;;;;;5042248;28;20475;-75
2022/09/24 08:37:59;;;;;;;22.27;17.83;;;13.50;82.10;;;;;;5043916;28;20545;-74
2022/09/24 08:40:30;;;;;;;18.07;14.57;;;13.50;82.10;;;;;;5036461;28;20466;-75
2022/09/24 08:43:05;;;;;;;16.70;13.90;;;13.50;82.10;;;;;;5045072;28;20496;-74
2022/09/24 08:48:33;;;;;;;16.27;12.77;;;13.60;82.30;;;;;;5041847;28;20485;-74
2022/09/24 08:51:05;;;;;;;16.50;13.00;;;13.60;82.20;;;;;;5042608;28;20475;-75
2022/09/24 08:53:42;;;;;;;15.77;11.67;;;13.70;82.30;;;;;;5042680;28;20871;-76
2022/09/24 08:56:11;;;;;;;15.67;12.87;;;13.70;82.40;;;;;;5049305;28;20509;-75
2022/09/24 08:58:46;;;;;;;18.50;13.60;;;13.80;82.40;;;;;;5040136;28;20502;-75
2022/09/24 09:01:26;;;;;;;19.03;13.47;;;13.80;82.50;;;;;;5041081;28;20878;-76
2022/09/24 09:04:02;;;;;;;15.90;11.60;;;13.90;82.60;;;;;;5040845;28;20493;-74
2022/09/24 09:06:56;;;;;;;17.47;13.00;;;13.90;82.70;;;;;;5043063;28;21305;-76
2022/09/24 09:09:26;;;;;;;17.97;13.50;;;14.00;82.70;;;;;;5043677;28;20550;-75
2022/09/24 09:12:00;;;;;;;16.67;12.67;;;14.10;82.70;;;;;;5042428;28;20495;-75
2022/09/24 09:14:39;;;;;;;18.17;14.30;;;14.10;82.80;;;;;;5044845;28;21320;-75
2022/09/24 09:17:19;;;;;;;20.83;14.97;;;14.20;82.80;;;;;;5041724;28;20492;-76
2022/09/24 09:19:54;;;;;;;22.90;14.67;;;14.30;82.80;;;;;;5042698;28;20535;-75
2022/09/24 09:22:25;;;;;;;17.53;13.60;;;14.30;82.80;;;;;;5047488;28;20494;-75
2022/09/24 09:24:54;;;;;;;20.23;13.97;;;14.40;82.90;;;;;;5042292;28;20936;-75
2022/09/24 09:27:29;;;;;;;16.50;12.43;;;14.50;83.00;;;;;;5043756;28;20470;-75
2022/09/24 09:30:04;;;;;;;17.40;13.47;;;14.60;83.10;;;;;;5042132;28;20473;-75
2022/09/24 09:32:55;;;;;;;16.37;12.33;;;14.70;83.00;;;;;;5042989;28;20951;-76
2022/09/24 09:35:33;;;;;;;16.07;12.73;;;14.80;83.10;;;;;;5045936;28;20511;-76
2022/09/24 09:38:11;;;;;;;16.60;13.37;;;14.90;83.00;;;;;;5041050;28;20470;-75
2022/09/24 09:40:43;;;;;;;15.80;12.53;;;14.90;83.00;;;;;;5041174;28;20992;-75
2022/09/24 09:43:14;;;;;;;15.03;12.03;;;15.00;82.90;;;;;;5039846;28;20493;-75
2022/09/24 09:45:56;;;;;;;17.73;12.37;;;15.10;82.70;;;;;;5040614;28;20921;-75
2022/09/24 09:48:28;;;;;;;17.67;13.20;;;15.20;82.50;;;;;;5047880;28;20541;-75
2022/09/24 09:51:03;;;;;;;16.73;14.07;;;15.20;82.40;;;;;;5047333;28;20520;-75
2022/09/24 09:53:31;;;;;;;18.93;12.93;;;15.30;82.30;;;;;;5043037;28;20477;-75
2022/09/24 09:56:02;;;;;;;20.10;12.03;;;15.30;82.30;;;;;;5048537;28;20497;-76
2022/09/24 09:58:32;;;;;;;18.37;11.40;;;15.40;82.30;;;;;;5048261;28;20462;-75
2022/09/24 10:01:07;;;;;;;14.03;10.33;;;15.40;82.30;;;;;;5043405;28;20515;-75
2022/09/24 10:03:48;;;;;;;14.37;11.17;;;15.50;82.10;;;;;;5041845;28;20513;-75
2022/09/24 10:06:24;;;;;;;14.80;11.30;;;15.60;82.10;;;;;;5049184;28;21167;-75
2022/09/24 10:08:52;;;;;;;16.23;9.27;;;15.70;81.80;;;;;;5047518;28;20455;-75
2022/09/24 10:11:22;;;;;;;15.07;10.57;;;15.70;81.80;;;;;;5047113;28;20455;-75
2022/09/24 10:14:02;;;;;;;15.10;9.20;;;15.80;81.40;;;;;;5045572;28;20435;-76
2022/09/24 10:16:37;;;;;;;13.07;9.07;;;15.80;81.10;;;;;;5047136;28;20447;-75
2022/09/24 10:19:15;;;;;;;15.40;9.60;;;15.90;81.00;;;;;;5048046;28;20454;-74
2022/09/24 10:21:43;;;;;;;17.60;9.57;;;16.00;80.90;;;;;;5046688;28;20505;-74
2022/09/24 10:24:16;;;;;;;14.00;8.70;;;16.00;80.70;;;;;;5048656;28;20825;-73
2022/09/24 10:26:46;;;;;;;14.50;9.07;;;16.10;80.60;;;;;;5051826;28;20496;-75
2022/09/24 10:32:13;;;;;;;15.60;8.07;;;16.20;80.40;;;;;;5042355;28;20875;-76
2022/09/24 10:34:41;;;;;;;10.83;6.70;;;16.30;80.10;;;;;;5036564;28;20576;-76
2022/09/24 10:37:14;;;;;;;12.83;6.93;;;16.30;79.90;;;;;;5044955;28;20527;-76
2022/09/24 10:39:42;;;;;;;15.30;7.67;;;16.40;79.40;;;;;;5045567;28;20482;-75
2022/09/24 10:42:23;;;;;;;13.37;6.00;;;16.50;79.30;;;;;;5046418;28;20517;-75
2022/09/24 10:44:52;;;;;;;17.90;7.97;;;16.50;79.10;;;;;;5040959;28;20904;-75
2022/09/24 10:47:27;;;;;;;11.63;6.90;;;16.50;78.90;;;;;;5043410;28;20467;-77
2022/09/24 10:50:14;;;;;;;10.87;6.50;;;16.60;78.60;;;;;;5042471;28;20462;-76
2022/09/24 10:52:51;;;;;;;11.13;5.90;;;16.60;78.60;;;;;;5040835;28;21359;-75
2022/09/24 10:55:41;;;;;;;9.60;5.33;;;16.70;78.20;;;;;;5040559;28;20505;-76
2022/09/24 10:58:24;;;;;;;9.40;5.77;;;16.70;77.60;;;;;;5035443;28;20483;-78
2022/09/24 11:01:03;;;;;;;13.93;6.37;;;16.80;77.50;;;;;;5044864;28;20578;-76
2022/09/24 11:04:01;;;;;;;11.70;5.93;;;16.80;77.30;;;;;;5034963;28;21050;-76
2022/09/24 11:06:46;;;;;;;11.23;6.57;;;16.80;77.00;;;;;;5036071;28;20467;-77
2022/09/24 11:09:28;;;;;;;12.50;6.50;;;16.80;76.70;;;;;;5045602;28;20451;-76
2022/09/24 11:12:05;;;;;;;10.50;5.73;;;16.90;76.70;;;;;;5047810;28;21250;-75
2022/09/24 11:14:49;;;;;;;11.13;6.73;;;16.90;76.30;;;;;;5052036;28;20887;-75
2022/09/24 11:17:34;;;;;;;10.50;5.97;;;16.90;76.20;;;;;;5045789;28;21462;-76
2022/09/24 11:20:24;;;;;;;7.93;5.23;;;16.90;75.80;;;;;;5043334;28;20529;-76
2022/09/24 11:23:15;;;;;;;21.93;12.77;;;17.00;75.80;;;;;;5042302;28;20938;-75
2022/09/24 11:25:50;;;;;;;14.60;8.37;;;17.00;75.80;;;;;;5042874;28;20534;-76
2022/09/24 11:28:33;;;;;;;9.90;6.57;;;17.00;75.50;;;;;;5060002;28;21057;-76
2022/09/24 11:31:12;;;;;;;11.00;5.33;;;17.10;75.20;;;;;;5053189;28;21063;-75
2022/09/24 11:34:01;;;;;;;9.40;4.90;;;17.10;75.00;;;;;;5045651;28;20599;-75
2022/09/24 11:36:44;;;;;;;9.83;6.03;;;17.10;74.60;;;;;;5044278;28;20470;-76
2022/09/24 11:39:33;;;;;;;9.10;5.87;;;17.10;74.60;;;;;;5036887;28;20459;-75
2022/09/24 11:42:15;;;;;;;9.57;4.77;;;17.20;74.60;;;;;;5046743;28;20514;-76
2022/09/24 11:45:14;;;;;;;10.73;5.60;;;17.20;74.20;;;;;;5037515;28;20955;-74
2022/09/24 11:47:57;;;;;;;12.30;5.17;;;17.20;73.90;;;;;;5045142;28;20905;-76
2022/09/24 11:50:37;;;;;;;7.77;4.77;;;17.30;73.90;;;;;;5050764;28;20501;-76
2022/09/24 11:53:12;;;;;;;7.47;4.83;;;17.30;73.70;;;;;;5064909;28;20458;-77
2022/09/24 11:55:46;;;;;;;7.50;5.00;;;17.40;73.60;;;;;;5045378;28;21064;-75
2022/09/24 11:58:17;;;;;;;10.83;5.43;;;17.40;73.50;;;;;;5062882;28;20554;-75
2022/09/24 12:00:51;;;;;;;7.67;4.80;;;17.40;73.00;;;;;;5046466;28;20482;-75
2022/09/24 12:03:23;;;;;;;9.97;5.37;;;17.40;73.10;;;;;;5045229;28;20474;-75
2022/09/24 12:05:59;;;;;;;8.70;5.30;;;17.40;72.90;;;;;;5042364;28;20491;-75
2022/09/24 12:08:34;;;;;;;7.37;5.10;;;17.40;72.70;;;;;;5046492;28;20462;-74
2022/09/24 12:11:08;;;;;;;8.30;4.87;;;17.50;72.50;;;;;;5042014;28;20504;-75
2022/09/24 12:13:40;;;;;;;7.70;5.23;;;17.50;72.30;;;;;;5054924;28;20820;-74
2022/09/24 12:16:13;;;;;;;7.60;4.63;;;17.50;72.10;;;;;;5040611;28;21571;-75
2022/09/24 12:18:48;;;;;;;11.80;4.90;;;17.50;72.00;;;;;;5045385;28;20465;-76
2022/09/24 12:21:20;;;;;;;9.20;5.20;;;17.50;71.80;;;;;;5043723;28;20505;-74
2022/09/24 12:23:51;;;;;;;8.60;5.30;;;17.60;71.60;;;;;;5041258;28;20544;-75
2022/09/24 12:26:30;;;;;;;17.17;4.97;;;17.60;71.40;;;;;;5042175;28;20467;-76
2022/09/24 12:34:49;;;;;;;9.00;5.37;;;17.60;71.10;;;;;;5043860;28;20475;-76
2022/09/24 12:37:21;;;;;;;12.07;5.23;;;17.60;71.00;;;;;;5040923;28;20470;-76
2022/09/24 12:39:58;;;;;;;8.13;5.27;;;17.60;71.00;;;;;;5042809;28;20467;-75
2022/09/24 12:42:32;;;;;;;12.03;5.43;;;17.60;71.00;;;;;;5044677;28;20479;-75
2022/09/24 12:45:02;;;;;;;9.03;5.33;;;17.60;71.10;;;;;;5050971;28;21157;-76
2022/09/24 12:47:32;;;;;;;9.70;6.03;;;17.70;71.00;;;;;;5046680;28;20447;-76
2022/09/24 12:50:03;;;;;;;17.03;5.67;;;17.70;70.90;;;;;;5037841;28;20937;-76
2022/09/24 12:52:35;;;;;;;11.40;5.33;;;17.70;70.90;;;;;;5040440;28;20964;-76
2022/09/24 12:55:05;;;;;;;12.00;6.17;;;17.80;70.80;;;;;;5043368;28;20502;-76
2022/09/24 12:57:37;;;;;;;9.33;6.00;;;17.80;70.70;;;;;;5044130;28;20455;-76
2022/09/24 13:00:39;;;;;;;8.27;5.73;;;17.80;70.40;;;;;;5044763;28;20504;-76
2022/09/24 13:03:31;;;;;;;11.67;5.70;;;17.80;70.30;;;;;;5043320;28;20546;-76
2022/09/24 13:06:00;;;;;;;9.60;5.70;;;17.80;70.30;;;;;;5061115;28;20575;-75
2022/09/24 13:08:36;;;;;;;9.87;5.80;;;17.90;70.40;;;;;;5043354;28;20969;-76
2022/09/24 13:11:26;;;;;;;12.77;6.33;;;17.90;70.50;;;;;;5044845;28;20857;-76
2022/09/24 13:14:05;;;;;;;12.43;6.67;;;17.90;70.50;;;;;;5043534;28;20451;-75
2022/09/24 13:16:38;;;;;;;9.17;5.70;;;17.90;70.50;;;;;;5044769;28;20451;-76
2022/09/24 13:19:24;;;;;;;9.90;5.30;;;17.90;70.50;;;;;;5043890;28;20503;-75
2022/09/24 13:21:57;;;;;;;14.53;5.90;;;18.00;70.40;;;;;;5044266;28;20507;-75